sensor_id;sensor_type;location;lat;lon;timestamp;pressure;altitude;pressure_sealevel;temperature;humidity
60371;BME280;48550;40.588;49.684;2023-03-01T00:01:10;101831.66;;;9.53;100.00
60371;BME280;48550;40.588;49.684;2023-03-01T00:03:36;101822.69;;;9.33;100.00
60371;BME280;48550;40.588;49.684;2023-03-01T00:06:02;101830.00;;;9.52;100.00
60371;BME280;48550;40.588;49.684;2023-03-01T00:08:28;101830.34;;;9.36;100.00
60371;BME280;48550;40.588;49.684;2023-03-01T00:11:03;101822.78;;;9.46;100.00
60371;BME280;48550;40.588;49.684;2023-03-01T00:13:29;101826.00;;;9.35;100.00
60371;BME280;48550;40.588;49.684;2023-03-01T00:15:55;101822.25;;;9.29;100.00
60371;BME280;48550;40.588;49.684;2023-03-01T00:18:21;101824.19;;;9.42;100.00
60371;BME280;48550;40.588;49.684;2023-03-01T00:20:52;101823.66;;;9.60;100.00
60371;BME280;48550;40.588;49.684;2023-03-01T00:23:18;101817.97;;;9.69;100.00
60371;BME280;48550;40.588;49.684;2023-03-01T00:25:44;101820.56;;;9.63;100.00
60371;BME280;48550;40.588;49.684;2023-03-01T00:28:11;101813.81;;;9.67;100.00
60371;BME280;48550;40.588;49.684;2023-03-01T00:30:36;101808.09;;;9.76;100.00
60371;BME280;48550;40.588;49.684;2023-03-01T00:33:02;101807.97;;;9.56;100.00
60371;BME280;48550;40.588;49.684;2023-03-01T00:35:28;101798.06;;;9.50;100.00
60371;BME280;48550;40.588;49.684;2023-03-01T00:37:54;101796.41;;;9.49;100.00
60371;BME280;48550;40.588;49.684;2023-03-01T00:40:31;101794.88;;;9.34;100.00
60371;BME280;48550;40.588;49.684;2023-03-01T00:42:57;101788.84;;;9.25;100.00
60371;BME280;48550;40.588;49.684;2023-03-01T00:45:24;101782.44;;;9.19;100.00
60371;BME280;48550;40.588;49.684;2023-03-01T00:47:50;101786.19;;;9.25;100.00
60371;BME280;48550;40.588;49.684;2023-03-01T00:50:16;101784.97;;;9.28;100.00
60371;BME280;48550;40.588;49.684;2023-03-01T00:52:42;101769.50;;;9.30;100.00
60371;BME280;48550;40.588;49.684;2023-03-01T00:55:08;101770.09;;;9.25;100.00
60371;BME280;48550;40.588;49.684;2023-03-01T00:57:34;101772.16;;;9.23;100.00
60371;BME280;48550;40.588;49.684;2023-03-01T01:00:00;101783.50;;;9.25;100.00
60371;BME280;48550;40.588;49.684;2023-03-01T01:02:25;101793.69;;;9.43;100.00
60371;BME280;48550;40.588;49.684;2023-03-01T01:04:51;101784.97;;;9.28;100.00
60371;BME280;48550;40.588;49.684;2023-03-01T01:07:17;101784.31;;;9.26;100.00
60371;BME280;48550;40.588;49.684;2023-03-01T01:09:45;101769.50;;;9.30;100.00
60371;BME280;48550;40.588;49.684;2023-03-01T01:12:11;101771.56;;;9.28;100.00
60371;BME280;48550;40.588;49.684;2023-03-01T01:14:38;101773.81;;;9.24;100.00
60371;BME280;48550;40.588;49.684;2023-03-01T01:17:04;101783.22;;;9.54;100.00
60371;BME280;48550;40.588;49.684;2023-03-01T01:19:30;101784.78;;;9.36;100.00
60371;BME280;48550;40.588;49.684;2023-03-01T01:21:56;101785.91;;;9.54;100.00
60371;BME280;48550;40.588;49.684;2023-03-01T01:24:22;101776.59;;;9.44;100.00
60371;BME280;48550;40.588;49.684;2023-03-01T01:26:48;101784.03;;;9.48;100.00
60371;BME280;48550;40.588;49.684;2023-03-01T01:29:13;101780.56;;;9.61;100.00
60371;BME280;48550;40.588;49.684;2023-03-01T01:31:41;101784.91;;;9.62;100.00
60371;BME280;48550;40.588;49.684;2023-03-01T01:34:09;101788.19;;;9.57;100.00
60371;BME280;48550;40.588;49.684;2023-03-01T01:36:37;101790.63;;;9.46;100.00
60371;BME280;48550;40.588;49.684;2023-03-01T01:39:04;101797.56;;;9.34;100.00
60371;BME280;48550;40.588;49.684;2023-03-01T01:41:30;101798.78;;;9.31;100.00
60371;BME280;48550;40.588;49.684;2023-03-01T01:44:20;101796.25;;;9.23;100.00
60371;BME280;48550;40.588;49.684;2023-03-01T01:46:53;101795.56;;;9.08;100.00
60371;BME280;48550;40.588;49.684;2023-03-01T01:51:51;101803.00;;;9.12;100.00
60371;BME280;48550;40.588;49.684;2023-03-01T01:54:25;101808.28;;;8.99;100.00
60371;BME280;48550;40.588;49.684;2023-03-01T01:56:56;101814.09;;;8.81;100.00
60371;BME280;48550;40.588;49.684;2023-03-01T01:59:25;101818.75;;;8.73;100.00
60371;BME280;48550;40.588;49.684;2023-03-01T02:01:52;101817.19;;;9.06;100.00
60371;BME280;48550;40.588;49.684;2023-03-01T02:04:18;101817.81;;;9.08;100.00
60371;BME280;48550;40.588;49.684;2023-03-01T02:07:14;101819.47;;;9.44;100.00
60371;BME280;48550;40.588;49.684;2023-03-01T02:09:45;101832.19;;;9.01;100.00
60371;BME280;48550;40.588;49.684;2023-03-01T02:12:13;101826.72;;;8.66;100.00
60371;BME280;48550;40.588;49.684;2023-03-01T02:14:39;101839.53;;;8.49;100.00
60371;BME280;48550;40.588;49.684;2023-03-01T02:17:05;101831.94;;;8.32;100.00
60371;BME280;48550;40.588;49.684;2023-03-01T02:20:33;101837.75;;;8.56;100.00
60371;BME280;48550;40.588;49.684;2023-03-01T02:22:38;101833.50;;;8.62;100.00
60371;BME280;48550;40.588;49.684;2023-03-01T02:27:45;101834.72;;;8.38;100.00
60371;BME280;48550;40.588;49.684;2023-03-01T02:30:15;101840.94;;;8.45;100.00
60371;BME280;48550;40.588;49.684;2023-03-01T02:32:41;101836.72;;;9.35;100.00
60371;BME280;48550;40.588;49.684;2023-03-01T02:35:13;101840.44;;;8.56;100.00
60371;BME280;48550;40.588;49.684;2023-03-01T02:37:41;101842.81;;;8.30;100.00
60371;BME280;48550;40.588;49.684;2023-03-01T02:40:17;101842.09;;;8.57;100.00
60371;BME280;48550;40.588;49.684;2023-03-01T02:42:52;101848.47;;;8.20;100.00
60371;BME280;48550;40.588;49.684;2023-03-01T02:45:19;101851.69;;;8.16;100.00
60371;BME280;48550;40.588;49.684;2023-03-01T02:47:44;101846.88;;;8.62;100.00
60371;BME280;48550;40.588;49.684;2023-03-01T02:53:15;101845.34;;;8.17;100.00
60371;BME280;48550;40.588;49.684;2023-03-01T02:55:44;101843.56;;;8.39;100.00
60371;BME280;48550;40.588;49.684;2023-03-01T02:58:10;101835.72;;;9.08;100.00
60371;BME280;48550;40.588;49.684;2023-03-01T03:00:38;101844.50;;;8.16;100.00
60371;BME280;48550;40.588;49.684;2023-03-01T03:03:06;101839.34;;;7.79;100.00
60371;BME280;48550;40.588;49.684;2023-03-01T03:05:32;101847.44;;;7.85;100.00
60371;BME280;48550;40.588;49.684;2023-03-01T03:08:01;101854.25;;;8.60;100.00
60371;BME280;48550;40.588;49.684;2023-03-01T03:10:32;101854.16;;;8.32;100.00
60371;BME280;48550;40.588;49.684;2023-03-01T03:13:04;101855.53;;;7.92;100.00
60371;BME280;48550;40.588;49.684;2023-03-01T03:15:30;101858.34;;;8.20;100.00
60371;BME280;48550;40.588;49.684;2023-03-01T03:17:57;101861.84;;;8.35;100.00
60371;BME280;48550;40.588;49.684;2023-03-01T03:20:24;101871.81;;;8.12;100.00
60371;BME280;48550;40.588;49.684;2023-03-01T03:22:53;101863.22;;;7.80;100.00
60371;BME280;48550;40.588;49.684;2023-03-01T03:25:20;101878.41;;;7.80;100.00
60371;BME280;48550;40.588;49.684;2023-03-01T03:27:47;101874.75;;;8.17;100.00
60371;BME280;48550;40.588;49.684;2023-03-01T03:30:17;101878.09;;;8.55;100.00
60371;BME280;48550;40.588;49.684;2023-03-01T03:32:44;101883.69;;;8.39;100.00
60371;BME280;48550;40.588;49.684;2023-03-01T03:35:23;101884.78;;;8.29;100.00
60371;BME280;48550;40.588;49.684;2023-03-01T03:37:50;101875.03;;;8.37;100.00
60371;BME280;48550;40.588;49.684;2023-03-01T03:40:31;101883.16;;;8.14;100.00
60371;BME280;48550;40.588;49.684;2023-03-01T03:42:57;101895.22;;;8.39;100.00
60371;BME280;48550;40.588;49.684;2023-03-01T03:45:23;101903.13;;;8.47;100.00
60371;BME280;48550;40.588;49.684;2023-03-01T03:47:49;101895.47;;;8.66;100.00
60371;BME280;48550;40.588;49.684;2023-03-01T03:50:16;101913.97;;;8.82;100.00
60371;BME280;48550;40.588;49.684;2023-03-01T03:52:42;101912.16;;;8.89;100.00
60371;BME280;48550;40.588;49.684;2023-03-01T03:55:10;101921.38;;;9.01;100.00
60371;BME280;48550;40.588;49.684;2023-03-01T03:57:41;101925.50;;;9.04;100.00
60371;BME280;48550;40.588;49.684;2023-03-01T04:00:10;101926.00;;;9.14;100.00
60371;BME280;48550;40.588;49.684;2023-03-01T04:02:42;101917.81;;;9.50;100.00
60371;BME280;48550;40.588;49.684;2023-03-01T04:05:10;101928.25;;;9.38;100.00
60371;BME280;48550;40.588;49.684;2023-03-01T04:07:36;101928.25;;;9.38;100.00
60371;BME280;48550;40.588;49.684;2023-03-01T04:10:09;101933.47;;;9.18;100.00
60371;BME280;48550;40.588;49.684;2023-03-01T04:12:35;101936.88;;;9.34;100.00
60371;BME280;48550;40.588;49.684;2023-03-01T04:15:02;101951.59;;;9.72;100.00
60371;BME280;48550;40.588;49.684;2023-03-01T04:17:39;101942.09;;;9.42;100.00
60371;BME280;48550;40.588;49.684;2023-03-01T04:20:05;101956.13;;;9.72;100.00
60371;BME280;48550;40.588;49.684;2023-03-01T04:22:32;101947.81;;;9.95;100.00
60371;BME280;48550;40.588;49.684;2023-03-01T04:24:58;101953.75;;;9.90;100.00
60371;BME280;48550;40.588;49.684;2023-03-01T04:27:33;101953.75;;;9.90;100.00
60371;BME280;48550;40.588;49.684;2023-03-01T04:29:59;101960.63;;;9.99;100.00
60371;BME280;48550;40.588;49.684;2023-03-01T04:32:24;101966.16;;;10.32;100.00
60371;BME280;48550;40.588;49.684;2023-03-01T04:34:50;101976.03;;;9.91;100.00
60371;BME280;48550;40.588;49.684;2023-03-01T04:37:16;101982.91;;;10.00;100.00
60371;BME280;48550;40.588;49.684;2023-03-01T04:39:41;101979.03;;;10.09;100.00
60371;BME280;48550;40.588;49.684;2023-03-01T04:42:14;101984.09;;;10.25;100.00
60371;BME280;48550;40.588;49.684;2023-03-01T04:44:40;101991.03;;;9.78;100.00
60371;BME280;48550;40.588;49.684;2023-03-01T04:47:06;101988.09;;;10.08;100.00
60371;BME280;48550;40.588;49.684;2023-03-01T04:49:32;101997.50;;;10.25;100.00
60371;BME280;48550;40.588;49.684;2023-03-01T04:51:58;101986.88;;;10.10;100.00
60371;BME280;48550;40.588;49.684;2023-03-01T04:54:28;101974.50;;;10.09;100.00
60371;BME280;48550;40.588;49.684;2023-03-01T04:56:54;101983.59;;;10.49;100.00
60371;BME280;48550;40.588;49.684;2023-03-01T04:59:20;101988.03;;;10.83;100.00
60371;BME280;48550;40.588;49.684;2023-03-01T05:01:50;101987.19;;;10.83;100.00
60371;BME280;48550;40.588;49.684;2023-03-01T05:04:15;101999.06;;;11.15;100.00
60371;BME280;48550;40.588;49.684;2023-03-01T05:06:41;101998.81;;;11.03;100.00
60371;BME280;48550;40.588;49.684;2023-03-01T05:09:07;101994.09;;;11.32;100.00
60371;BME280;48550;40.588;49.684;2023-03-01T05:11:33;101979.22;;;11.16;100.00
60371;BME280;48550;40.588;49.684;2023-03-01T05:14:08;101989.34;;;11.27;100.00
60371;BME280;48550;40.588;49.684;2023-03-01T05:16:35;102003.22;;;11.24;100.00
60371;BME280;48550;40.588;49.684;2023-03-01T05:19:02;102003.22;;;11.44;100.00
60371;BME280;48550;40.588;49.684;2023-03-01T05:21:39;101996.38;;;11.22;100.00
60371;BME280;48550;40.588;49.684;2023-03-01T05:24:24;102008.38;;;11.32;100.00
60371;BME280;48550;40.588;49.684;2023-03-01T05:26:50;102016.22;;;11.27;100.00
60371;BME280;48550;40.588;49.684;2023-03-01T05:29:18;102011.28;;;11.44;100.00
60371;BME280;48550;40.588;49.684;2023-03-01T05:31:54;102010.44;;;11.17;100.00
60371;BME280;48550;40.588;49.684;2023-03-01T05:34:31;102021.00;;;11.45;100.00
60371;BME280;48550;40.588;49.684;2023-03-01T05:36:58;102024.09;;;11.42;100.00
60371;BME280;48550;40.588;49.684;2023-03-01T05:39:26;102027.00;;;11.87;100.00
60371;BME280;48550;40.588;49.684;2023-03-01T05:41:53;102017.47;;;11.31;100.00
60371;BME280;48550;40.588;49.684;2023-03-01T05:44:19;102022.84;;;11.84;100.00
60371;BME280;48550;40.588;49.684;2023-03-01T05:46:48;102023.50;;;11.93;100.00
60371;BME280;48550;40.588;49.684;2023-03-01T05:49:15;102029.47;;;12.01;100.00
60371;BME280;48550;40.588;49.684;2023-03-01T05:51:42;102032.16;;;11.62;100.00
60371;BME280;48550;40.588;49.684;2023-03-01T05:54:09;102036.53;;;12.02;100.00
60371;BME280;48550;40.588;49.684;2023-03-01T05:56:36;102027.16;;;12.25;100.00
60371;BME280;48550;40.588;49.684;2023-03-01T05:59:04;102026.38;;;11.98;100.00
60371;BME280;48550;40.588;49.684;2023-03-01T06:01:33;102033.47;;;12.50;100.00
60371;BME280;48550;40.588;49.684;2023-03-01T06:03:59;102041.31;;;12.65;100.00
60371;BME280;48550;40.588;49.684;2023-03-01T06:06:25;102040.88;;;12.68;100.00
60371;BME280;48550;40.588;49.684;2023-03-01T06:08:51;102040.75;;;12.94;96.58
60371;BME280;48550;40.588;49.684;2023-03-01T06:11:17;102045.78;;;12.84;94.42
60371;BME280;48550;40.588;49.684;2023-03-01T06:13:44;102047.69;;;12.77;95.34
60371;BME280;48550;40.588;49.684;2023-03-01T06:16:10;102054.75;;;13.10;93.88
60371;BME280;48550;40.588;49.684;2023-03-01T06:18:36;102051.91;;;12.47;100.00
60371;BME280;48550;40.588;49.684;2023-03-01T06:21:03;102053.28;;;12.76;97.72
60371;BME280;48550;40.588;49.684;2023-03-01T06:23:29;102052.63;;;12.22;100.00
60371;BME280;48550;40.588;49.684;2023-03-01T06:25:56;102049.09;;;12.22;100.00
60371;BME280;48550;40.588;49.684;2023-03-01T06:28:22;102038.66;;;12.45;100.00
60371;BME280;48550;40.588;49.684;2023-03-01T06:30:49;102035.47;;;12.75;100.00
60371;BME280;48550;40.588;49.684;2023-03-01T06:33:17;102047.25;;;12.80;100.00
60371;BME280;48550;40.588;49.684;2023-03-01T06:35:46;102049.56;;;12.70;100.00
60371;BME280;48550;40.588;49.684;2023-03-01T06:38:12;102046.59;;;12.27;100.00
60371;BME280;48550;40.588;49.684;2023-03-01T06:40:40;102055.56;;;11.94;100.00
60371;BME280;48550;40.588;49.684;2023-03-01T06:43:06;102043.38;;;11.92;100.00
60371;BME280;48550;40.588;49.684;2023-03-01T06:45:33;102062.97;;;12.25;100.00
60371;BME280;48550;40.588;49.684;2023-03-01T06:48:04;102058.44;;;12.13;100.00
60371;BME280;48550;40.588;49.684;2023-03-01T06:50:30;102050.94;;;12.28;100.00
60371;BME280;48550;40.588;49.684;2023-03-01T06:52:56;102058.06;;;13.12;100.00
60371;BME280;48550;40.588;49.684;2023-03-01T06:55:22;102048.63;;;12.96;100.00
60371;BME280;48550;40.588;49.684;2023-03-01T06:57:48;102052.47;;;12.68;100.00
60371;BME280;48550;40.588;49.684;2023-03-01T07:00:14;102059.72;;;11.90;100.00
60371;BME280;48550;40.588;49.684;2023-03-01T07:02:40;102050.09;;;12.34;100.00
60371;BME280;48550;40.588;49.684;2023-03-01T07:05:06;102051.31;;;12.96;100.00
60371;BME280;48550;40.588;49.684;2023-03-01T07:07:32;102051.63;;;13.51;100.00
60371;BME280;48550;40.588;49.684;2023-03-01T07:09:57;102037.56;;;12.66;100.00
60371;BME280;48550;40.588;49.684;2023-03-01T07:12:23;102044.22;;;12.63;100.00
60371;BME280;48550;40.588;49.684;2023-03-01T07:14:49;102056.53;;;12.91;100.00
60371;BME280;48550;40.588;49.684;2023-03-01T07:17:14;102044.84;;;12.65;100.00
60371;BME280;48550;40.588;49.684;2023-03-01T07:19:40;102047.34;;;12.98;100.00
60371;BME280;48550;40.588;49.684;2023-03-01T07:22:06;102042.31;;;12.70;100.00
60371;BME280;48550;40.588;49.684;2023-03-01T07:24:33;102039.09;;;12.42;100.00
60371;BME280;48550;40.588;49.684;2023-03-01T07:26:59;102029.66;;;12.20;100.00
60371;BME280;48550;40.588;49.684;2023-03-01T07:29:25;102029.69;;;12.71;100.00
60371;BME280;48550;40.588;49.684;2023-03-01T07:31:52;102018.75;;;12.53;100.00
60371;BME280;48550;40.588;49.684;2023-03-01T07:34:18;102011.44;;;12.15;100.00
60371;BME280;48550;40.588;49.684;2023-03-01T07:36:44;102016.22;;;11.60;100.00
60371;BME280;48550;40.588;49.684;2023-03-01T07:39:11;102019.13;;;11.72;100.00
60371;BME280;48550;40.588;49.684;2023-03-01T07:41:37;102017.25;;;11.72;100.00
60371;BME280;48550;40.588;49.684;2023-03-01T07:44:03;102017.91;;;11.81;100.00
60371;BME280;48550;40.588;49.684;2023-03-01T07:46:29;102011.06;;;11.45;100.00
60371;BME280;48550;40.588;49.684;2023-03-01T07:48:55;102012.88;;;11.12;100.00
60371;BME280;48550;40.588;49.684;2023-03-01T07:51:21;102009.13;;;11.00;100.00
60371;BME280;48550;40.588;49.684;2023-03-01T07:53:47;101995.13;;;11.18;100.00
60371;BME280;48550;40.588;49.684;2023-03-01T07:56:14;101994.72;;;11.34;100.00
60371;BME280;48550;40.588;49.684;2023-03-01T07:58:42;101998.16;;;10.81;100.00
60371;BME280;48550;40.588;49.684;2023-03-01T08:01:11;101988.69;;;11.05;100.00
60371;BME280;48550;40.588;49.684;2023-03-01T08:03:38;101992.63;;;11.09;100.00
60371;BME280;48550;40.588;49.684;2023-03-01T08:06:06;101987.88;;;11.11;100.00
60371;BME280;48550;40.588;49.684;2023-03-01T08:08:32;101982.09;;;11.67;100.00
60371;BME280;48550;40.588;49.684;2023-03-01T08:10:59;101984.41;;;11.31;100.00
60371;BME280;48550;40.588;49.684;2023-03-01T08:13:26;101979.84;;;11.31;100.00
60371;BME280;48550;40.588;49.684;2023-03-01T08:15:53;101978.59;;;11.54;100.00
60371;BME280;48550;40.588;49.684;2023-03-01T08:18:19;101970.13;;;11.43;100.00
60371;BME280;48550;40.588;49.684;2023-03-01T08:20:46;101972.78;;;11.10;100.00
60371;BME280;48550;40.588;49.684;2023-03-01T08:23:13;101968.25;;;11.37;100.00
60371;BME280;48550;40.588;49.684;2023-03-01T08:25:39;101966.19;;;11.59;100.00
60371;BME280;48550;40.588;49.684;2023-03-01T08:28:05;101960.34;;;11.89;100.00
60371;BME280;48550;40.588;49.684;2023-03-01T08:30:31;101962.06;;;11.37;100.00
60371;BME280;48550;40.588;49.684;2023-03-01T08:32:57;101958.94;;;11.60;100.00
60371;BME280;48550;40.588;49.684;2023-03-01T08:35:23;101963.72;;;11.31;100.00
60371;BME280;48550;40.588;49.684;2023-03-01T08:37:48;101958.09;;;11.59;100.00
60371;BME280;48550;40.588;49.684;2023-03-01T08:40:14;101957.06;;;11.73;100.00
60371;BME280;48550;40.588;49.684;2023-03-01T08:42:41;101964.13;;;11.55;100.00
60371;BME280;48550;40.588;49.684;2023-03-01T08:45:09;101961.03;;;11.38;100.00
60371;BME280;48550;40.588;49.684;2023-03-01T08:47:35;101951.06;;;11.58;100.00
60371;BME280;48550;40.588;49.684;2023-03-01T08:50:01;101951.66;;;11.73;100.00
60371;BME280;48550;40.588;49.684;2023-03-01T08:52:27;101937.63;;;11.65;100.00
60371;BME280;48550;40.588;49.684;2023-03-01T08:54:53;101939.31;;;11.46;100.00
60371;BME280;48550;40.588;49.684;2023-03-01T08:57:18;101946.75;;;11.57;100.00
60371;BME280;48550;40.588;49.684;2023-03-01T08:59:44;101933.09;;;11.12;100.00
60371;BME280;48550;40.588;49.684;2023-03-01T09:02:15;101931.03;;;11.14;100.00
60371;BME280;48550;40.588;49.684;2023-03-01T09:04:42;101930.22;;;11.21;100.00
60371;BME280;48550;40.588;49.684;2023-03-01T09:07:08;101926.72;;;11.20;100.00
60371;BME280;48550;40.588;49.684;2023-03-01T09:09:34;101926.66;;;10.74;100.00
60371;BME280;48550;40.588;49.684;2023-03-01T09:12:01;101904.56;;;10.65;100.00
60371;BME280;48550;40.588;49.684;2023-03-01T09:14:27;101912.41;;;10.67;100.00
60371;BME280;48550;40.588;49.684;2023-03-01T09:16:53;101895.84;;;10.43;100.00
60371;BME280;48550;40.588;49.684;2023-03-01T09:19:19;101899.38;;;10.50;100.00
60371;BME280;48550;40.588;49.684;2023-03-01T09:21:44;101890.94;;;10.73;100.00
60371;BME280;48550;40.588;49.684;2023-03-01T09:24:20;101893.22;;;10.83;100.00
60371;BME280;48550;40.588;49.684;2023-03-01T09:26:46;101901.88;;;10.92;100.00
60371;BME280;48550;40.588;49.684;2023-03-01T09:29:13;101895.91;;;10.90;100.00
60371;BME280;48550;40.588;49.684;2023-03-01T09:31:40;101894.03;;;11.03;100.00
60371;BME280;48550;40.588;49.684;2023-03-01T09:34:06;101888.84;;;11.48;100.00
60371;BME280;48550;40.588;49.684;2023-03-01T09:36:33;101893.84;;;10.98;100.00
60371;BME280;48550;40.588;49.684;2023-03-01T09:38:59;101894.03;;;10.90;100.00
60371;BME280;48550;40.588;49.684;2023-03-01T09:42:02;101887.84;;;10.76;100.00
60371;BME280;48550;40.588;49.684;2023-03-01T09:44:51;101883.50;;;11.22;100.00
60371;BME280;48550;40.588;49.684;2023-03-01T09:47:19;101881.22;;;10.79;100.00
60371;BME280;48550;40.588;49.684;2023-03-01T09:53:01;101875.19;;;10.50;100.00
60371;BME280;48550;40.588;49.684;2023-03-01T09:55:34;101877.50;;;10.60;100.00
60371;BME280;48550;40.588;49.684;2023-03-01T09:58:37;101873.56;;;10.69;100.00
60371;BME280;48550;40.588;49.684;2023-03-01T10:01:30;101871.63;;;10.37;100.00
60371;BME280;48550;40.588;49.684;2023-03-01T10:09:22;101867.31;;;10.36;100.00
60371;BME280;48550;40.588;49.684;2023-03-01T10:11:55;101863.56;;;10.30;100.00
60371;BME280;48550;40.588;49.684;2023-03-01T10:16:57;101852.56;;;10.12;100.00
60371;BME280;48550;40.588;49.684;2023-03-01T10:19:53;101844.72;;;10.10;100.00
60371;BME280;48550;40.588;49.684;2023-03-01T10:22:21;101856.34;;;10.24;100.00
60371;BME280;48550;40.588;49.684;2023-03-01T10:24:48;101848.38;;;9.96;100.00
60371;BME280;48550;40.588;49.684;2023-03-01T10:27:29;101848.38;;;9.96;100.00
60371;BME280;48550;40.588;49.684;2023-03-01T10:32:31;101845.75;;;10.16;100.00
60371;BME280;48550;40.588;49.684;2023-03-01T10:34:57;101837.50;;;10.11;100.00
60371;BME280;48550;40.588;49.684;2023-03-01T10:37:23;101802.81;;;9.55;100.00
60371;BME280;48550;40.588;49.684;2023-03-01T10:39:56;101839.06;;;9.85;100.00
60371;BME280;48550;40.588;49.684;2023-03-01T10:42:38;101830.75;;;9.74;100.00
60371;BME280;48550;40.588;49.684;2023-03-01T10:48:19;101839.84;;;9.73;100.00
60371;BME280;48550;40.588;49.684;2023-03-01T10:51:04;101840.72;;;9.86;100.00
60371;BME280;48550;40.588;49.684;2023-03-01T10:53:48;101839.47;;;9.82;100.00
60371;BME280;48550;40.588;49.684;2023-03-01T10:56:15;101834.47;;;9.73;100.00
60371;BME280;48550;40.588;49.684;2023-03-01T10:58:58;101844.81;;;9.82;100.00
60371;BME280;48550;40.588;49.684;2023-03-01T11:01:25;101836.38;;;9.85;100.00
60371;BME280;48550;40.588;49.684;2023-03-01T11:04:12;101831.00;;;9.85;100.00
60371;BME280;48550;40.588;49.684;2023-03-01T11:06:41;101841.59;;;10.00;100.00
60371;BME280;48550;40.588;49.684;2023-03-01T11:09:33;101833.06;;;9.83;100.00
60371;BME280;48550;40.588;49.684;2023-03-01T11:12:13;101830.06;;;10.13;100.00
60371;BME280;48550;40.588;49.684;2023-03-01T11:14:54;101833.75;;;9.99;100.00
60371;BME280;48550;40.588;49.684;2023-03-01T11:17:30;101826.34;;;10.14;100.00
60371;BME280;48550;40.588;49.684;2023-03-01T11:20:02;101824.91;;;10.18;100.00
60371;BME280;48550;40.588;49.684;2023-03-01T11:22:32;101826.69;;;9.91;100.00
60371;BME280;48550;40.588;49.684;2023-03-01T11:24:59;101812.84;;;9.81;100.00
60371;BME280;48550;40.588;49.684;2023-03-01T11:27:32;101815.84;;;10.19;100.00
60371;BME280;48550;40.588;49.684;2023-03-01T11:32:47;101804.47;;;10.10;100.00
60371;BME280;48550;40.588;49.684;2023-03-01T11:35:18;101812.31;;;10.05;100.00
60371;BME280;48550;40.588;49.684;2023-03-01T11:40:40;101810.47;;;10.19;100.00
60371;BME280;48550;40.588;49.684;2023-03-01T11:43:25;101810.16;;;10.48;100.00
60371;BME280;48550;40.588;49.684;2023-03-01T11:45:56;101794.63;;;10.24;100.00
60371;BME280;48550;40.588;49.684;2023-03-01T11:48:43;101794.00;;;10.35;100.00
60371;BME280;48550;40.588;49.684;2023-03-01T11:57:00;101785.47;;;9.99;100.00
60371;BME280;48550;40.588;49.684;2023-03-01T12:24:48;101784.66;;;9.50;100.00
60371;BME280;48550;40.588;49.684;2023-03-01T12:33:13;101780.84;;;9.32;100.00
60371;BME280;48550;40.588;49.684;2023-03-01T12:36:01;101780.88;;;9.38;100.00
60371;BME280;48550;40.588;49.684;2023-03-01T12:38:57;101779.41;;;9.29;100.00
60371;BME280;48550;40.588;49.684;2023-03-01T12:50:03;101763.19;;;9.03;100.00
60371;BME280;48550;40.588;49.684;2023-03-01T12:55:29;101753.59;;;8.87;100.00
60371;BME280;48550;40.588;49.684;2023-03-01T13:03:22;101752.88;;;8.72;100.00
60371;BME280;48550;40.588;49.684;2023-03-01T13:11:19;101740.75;;;8.76;100.00
60371;BME280;48550;40.588;49.684;2023-03-01T13:13:46;101750.66;;;8.82;100.00
60371;BME280;48550;40.588;49.684;2023-03-01T13:19:16;101753.38;;;8.88;100.00
60371;BME280;48550;40.588;49.684;2023-03-01T13:21:43;101749.13;;;8.94;100.00
60371;BME280;48550;40.588;49.684;2023-03-01T13:24:35;101736.25;;;8.83;100.00
60371;BME280;48550;40.588;49.684;2023-03-01T13:32:34;101723.81;;;8.69;100.00
60371;BME280;48550;40.588;49.684;2023-03-01T13:37:42;101721.78;;;8.71;100.00
60371;BME280;48550;40.588;49.684;2023-03-01T13:42:44;101721.38;;;8.46;100.00
60371;BME280;48550;40.588;49.684;2023-03-01T13:48:21;101726.78;;;8.52;100.00
60371;BME280;48550;40.588;49.684;2023-03-01T13:50:52;101736.81;;;8.44;100.00
60371;BME280;48550;40.588;49.684;2023-03-01T13:53:22;101727.94;;;8.43;100.00
60371;BME280;48550;40.588;49.684;2023-03-01T13:55:57;101737.63;;;8.44;100.00
60371;BME280;48550;40.588;49.684;2023-03-01T13:58:32;101737.09;;;8.55;100.00
60371;BME280;48550;40.588;49.684;2023-03-01T14:01:05;101732.88;;;8.40;100.00
60371;BME280;48550;40.588;49.684;2023-03-01T14:03:33;101727.38;;;8.48;100.00
60371;BME280;48550;40.588;49.684;2023-03-01T14:06:14;101732.53;;;8.49;100.00
60371;BME280;48550;40.588;49.684;2023-03-01T14:08:45;101733.84;;;8.17;100.00
60371;BME280;48550;40.588;49.684;2023-03-01T14:19:29;101753.47;;;8.24;100.00
60371;BME280;48550;40.588;49.684;2023-03-01T14:22:04;101750.09;;;8.16;100.00
60371;BME280;48550;40.588;49.684;2023-03-01T14:24:39;101754.59;;;8.15;100.00
60371;BME280;48550;40.588;49.684;2023-03-01T14:27:11;101757.50;;;7.78;100.00
60371;BME280;48550;40.588;49.684;2023-03-01T14:29:39;101770.91;;;7.63;100.00
60371;BME280;48550;40.588;49.684;2023-03-01T14:32:28;101766.44;;;7.49;100.00
60371;BME280;48550;40.588;49.684;2023-03-01T14:34:55;101768.63;;;7.45;100.00
60371;BME280;48550;40.588;49.684;2023-03-01T14:37:27;101763.94;;;7.32;100.00
60371;BME280;48550;40.588;49.684;2023-03-01T14:39:55;101770.75;;;7.35;100.00
60371;BME280;48550;40.588;49.684;2023-03-01T14:42:22;101765.88;;;7.24;100.00